Informes METAR

LERS - Reus (civ/Mil), Spain
Distancia desde la estación: O 7km
Actualizado: 19/02/2018 04:30
Despejado
Despejado
 Viento del varia
Viento: varia 2 km/h
Temperatura: 7°C
Rocío: 4°C
Humedad: 81%
Barómetro: 1016 hPa
Resumen: Despejado
Visibilidad: greater than 10 km
2018/02/19 03:30 LERS 190330Z AUTO VRB01KT CAVOK 07/04 Q1016
LEBL - Barcelona Airpor, Spain
Distancia desde la estación: ENE 70km
Actualizado: 19/02/2018 04:30
Poco nuboso
Poco nuboso
 Viento del NNO
Viento: NNO 13 km/h
Temperatura: 8°C
Wind Chill: 6°C
Rocío: 4°C
Humedad: 76%
Barómetro: 1017 hPa
Nubes: Poco nuboso
Visibilidad: 10 km
Detalles de la nube: Poco nuboso 1219 m
2018/02/19 03:30 LEBL 190330Z 33007KT 9999 FEW040 08/04 Q1017 NOSIG
 
LELL - Sabadell, Spain
Distancia desde la estación: ENE 83km
Actualizado: 19/02/2018 04:30
Despejado
Despejado
 Viento del calm
Viento: Calma
Temperatura: 5°C
Rocío: 3°C
Humedad: 87%
Barómetro: 1017 hPa
Nubes: Despejado
Visibilidad: 10 km
2018/02/19 03:30 LELL 190330Z AUTO 00000KT 9999 NCD 05/03 Q1017
LEDA - Lleida/Alguaire, Spain
Distancia desde la estación: NO 90km
Actualizado: 18/02/2018 17:30
NO METAR ACTUAL
Poco nuboso
Poco nuboso
 Viento del O
Viento: O 9 km/h
Temperatura: 12°C
Rocío: 0°C
Humedad: 44%
Barómetro: 1019 hPa
Nubes: Poco nuboso
Visibilidad: 10 km
Detalles de la nube: Poco nuboso 1067 m
2018/02/18 16:30 LEDA 181630Z 26005KT 9999 FEW035 12/M00 Q1019
 
LESU - Pirineus/La Seu, Spain
Distancia desde la estación: N 134km
Actualizado: 18/02/2018 18:00
NO METAR ACTUAL
Parcialmente nuboso
Parcialmente nuboso
 Viento del OSO
Viento: OSO 11 km/h
Temperatura: 8°C
Wind Chill: 6°C
Rocío: 0°C
Humedad: 57%
Barómetro: 1017 hPa
Nubes: Parcialmente nuboso
Visibilidad: 10 km
Detalles de la nube: Parcialmente nuboso 2164 m
2018/02/18 17:00 LESU 181700Z 24006KT 220V280 9999 SCT071 08/M00 Q1017
LEGE - Gerona/Costa Bra, Spain
Distancia desde la estación: NE 152km
Actualizado: 19/02/2018 04:30
Patches of fog, Muy nuboso
Patches of fog, Muy nuboso
 Viento del varia
Viento: varia 4 km/h
Temperatura: 7°C
Rocío: 7°C
Humedad: 100%
Barómetro: 1017 hPa
Resumen: Patches of Fog
Nubes: Muy nuboso
Visibilidad: 7 km
Detalles de la nube: Muy nuboso 671 m
2018/02/19 03:30 LEGE 190330Z VRB02KT 7000 BCFG BKN022 07/07 Q1017
 
LEHC - Huesca-Pirineos, Spain
Distancia desde la estación: NO 168km
Actualizado: 19/02/2018 04:30
Despejado
Despejado
 Viento del O
Viento: O 13 km/h
Temperatura: 5°C
Wind Chill: 2°C
Rocío: 2°C
Humedad: 81%
Barómetro: 1016 hPa
Nubes: Despejado
Visibilidad: 10 km
2018/02/19 03:30 LEHC 190330Z AUTO 28007KT 9999 NCD 05/02 Q1016
LEZG - Zaragoza (mil/Ci, Spain
Distancia desde la estación: ONO 198km
Actualizado: 19/02/2018 04:30
Muy nuboso
Muy nuboso
 Viento del O
Viento: O 26 km/h
Temperatura: 9°C
Wind Chill: 6°C
Rocío: 5°C
Humedad: 76%
Barómetro: 1018 hPa
Nubes: Muy nuboso
Visibilidad: 10 km
Detalles de la nube: Poco nuboso 1219 m
Muy nuboso 2591 m
2018/02/19 03:30 LEZG 190330Z 28014KT 9999 FEW040 BKN085 09/05 Q1018
 
LECH - Calamocha, Spain
Distancia desde la estación: O 216km
Actualizado: 19/02/2018 04:30
Despejado
Despejado
 Viento del SO
Viento: SO 2 km/h
Temperatura: 7°C
Rocío: 3°C
Humedad: 76%
Barómetro: 1017 hPa
Nubes: Despejado
Visibilidad: 10 km
2018/02/19 03:30 LECH 190330Z AUTO 23001KT 9999 NCD 07/03 Q1017
LEPA - Palma De Mallorc, Spain
Distancia desde la estación: SE 217km
Actualizado: 19/02/2018 04:30
Poco nuboso
Poco nuboso
 Viento del varia
Viento: varia 2 km/h
Temperatura: 6°C
Rocío: 4°C
Humedad: 87%
Barómetro: 1017 hPa
Nubes: Poco nuboso
Visibilidad: 10 km
Detalles de la nube: Poco nuboso 732 m
2018/02/19 03:30 LEPA 190330Z VRB01KT 9999 FEW024 06/04 Q1017 NOSIG
 
LFMP - Perpignan/Rivesa, France
Distancia desde la estación: NE 222km
Actualizado: 19/02/2018 04:30
Muy nuboso
Muy nuboso
 Viento del NE
Viento: NE 6 km/h
Temperatura: 7°C
Rocío: 5°C
Humedad: 87%
Barómetro: 1017 hPa
Nubes: Muy nuboso
Visibilidad: 10 km
Detalles de la nube: Muy nuboso 914 m
2018/02/19 03:30 LFMP 190330Z AUTO 04003KT 320V080 9999 BKN030 07/05 Q1017 NOSIG
LEVC - Valencia (civ/Mi, Spain
Distancia desde la estación: SO 232km
Actualizado: 19/02/2018 04:30
Despejado
Despejado
 Viento del O
Viento: O 7 km/h
Temperatura: 6°C
Wind Chill: 4°C
Rocío: 6°C
Humedad: 100%
Barómetro: 1017 hPa
Resumen: Despejado
Visibilidad: greater than 10 km
2018/02/19 03:30 LEVC 190330Z 28004KT CAVOK 06/06 Q1017 NOSIG
 
LFMK - Carcassonne/Salv, France
Distancia desde la estación: NNE 248km
Actualizado: 19/02/2018 04:30
Cubierto
Cubierto
 Viento del O
Viento: O 13 km/h
Temperatura: 6°C
Wind Chill: 3°C
Rocío: 5°C
Humedad: 93%
Barómetro: 1018 hPa
Nubes: Cubierto
Visibilidad: 10 km
Detalles de la nube: Cubierto 945 m
2018/02/19 03:30 LFMK 190330Z AUTO 28007KT 9999 OVC031 06/05 Q1018 NOSIG
LFBT - Tarbes/Ossun, France
Distancia desde la estación: NNO 249km
Actualizado: 19/02/2018 04:30
Thunderstorm
Thunderstorm
 Viento del SSO
Viento: SSO 13 km/h
Temperatura: 8°C
Wind Chill: 6°C
Rocío: 7°C
Humedad: 93%
Barómetro: 1018 hPa
Nubes: Thunderstorm
Visibilidad: 8 km
Detalles de la nube: Parcialmente nuboso 305 m
Muy nuboso 549 m
Muy nuboso 732 m
2018/02/19 03:30 LFBT 190330Z AUTO 21007KT 8000 SCT010/// BKN018/// BKN024/// ///TCU 08/07 Q1018 TEMPO 4000 -RADZ OVC006
 
LEIB - Ibiza/Es Codola, Spain
Distancia desde la estación: S 252km
Actualizado: 19/02/2018 00:00
NO METAR ACTUAL
Muy nuboso
Muy nuboso
 Viento del calm
Viento: Calma
Temperatura: 8°C
Rocío: 7°C
Humedad: 93%
Barómetro: 1020 hPa
Nubes: Muy nuboso
Visibilidad: 10 km
Detalles de la nube: Poco nuboso 457 m
Parcialmente nuboso 610 m
Muy nuboso 1067 m
2018/02/18 23:00 LEIB 182300Z 00000KT 9999 FEW015 SCT020 BKN035 08/07 Q1020 NOSIG
LFBO - Toulouse/Blagnac, France
Distancia desde la estación: N 277km
Actualizado: 19/02/2018 04:30

 Viento del O
Viento: O 4 km/h
Visibilidad: 2 km
2018/02/19 03:30 LFBO 190330Z AUTO 26002KT 1900 0600 R14R/0750D R32L/P2000 R14L/1700U R32R/P2000 BCFG VV/// 06/06 Q1018 TEMPO OVC002
 
LFCK - Castres-Mazamet, France
Distancia desde la estación: NNE 282km
Actualizado: 19/02/2018 04:30
Poco nuboso
Poco nuboso
 Viento del varia
Viento: varia 4 km/h
Temperatura: 3°C
Rocío: 2°C
Humedad: 93%
Barómetro: 1019 hPa
Nubes: Poco nuboso
Visibilidad: 10 km
Detalles de la nube: Poco nuboso 914 m
2018/02/19 03:30 LFCK 190330Z AUTO VRB02KT 9999 FEW030 03/02 Q1019
LFBP - Pont-Long-Uzein/, France
Distancia desde la estación: NNO 284km
Actualizado: 19/02/2018 04:30
Lluvia débil, Mist, Thunderstorm
Lluvia débil, Mist, Thunderstorm
 Viento del O
Viento: O 7 km/h
Temperatura: 9°C
Wind Chill: 8°C
Rocío: 9°C
Humedad: 100%
Barómetro: 1018 hPa
Resumen: Lluvia débil, Mist
Nubes: Thunderstorm
Visibilidad: 5 km
Detalles de la nube: Muy nuboso 152 m
Muy nuboso 274 m
Cubierto 396 m
2018/02/19 03:30 LFBP 190330Z AUTO 28004KT 4500 -RA BR BKN005/// BKN009/// OVC013/// ///TCU 09/09 Q1018 TEMPO 1500 DZ OVC004
 
LEMH - Mahon/Menorca Is, Spain
Distancia desde la estación: ESE 288km
Actualizado: 19/02/2018 04:30
Despejado
Despejado
 Viento del N
Viento: N 6 km/h
Temperatura: 7°C
Rocío: 6°C
Humedad: 93%
Barómetro: 1017 hPa
Resumen: Despejado
Visibilidad: greater than 10 km
2018/02/19 03:30 LEMH 190330Z AUTO 36003KT CAVOK 07/06 Q1017
LFMU - Beziers/Vias, France
Distancia desde la estación: NE 299km
Actualizado: 19/02/2018 04:30
Despejado
Despejado
 Viento del calm
Viento: Calma
Temperatura: 0°C
Rocío: -2°C
Humedad: 87%
Barómetro: 1018 hPa
Resumen: Despejado
Visibilidad: greater than 10 km
2018/02/19 03:30 LFMU 190330Z AUTO 00000KT CAVOK M00/M02 Q1018 NOSIG

 ♦     ♦     ♦     Nunca base decisiones importantes en estos datos u otros obtenidos de Internet     ♦     ♦     ♦